createdAt,value
2023-02-19T00:01:01.446Z,22.20
2023-02-19T00:03:27.829Z,22.35
2023-02-19T00:05:54.381Z,23.83
2023-02-19T00:08:20.706Z,24.13
2023-02-19T00:10:47.243Z,20.08
2023-02-19T00:13:13.705Z,23.75
2023-02-19T00:15:40.129Z,21.77
2023-02-19T00:18:06.493Z,24.25
2023-02-19T00:20:33.024Z,23.75
2023-02-19T00:22:59.611Z,17.52
2023-02-19T00:25:25.924Z,20.80
2023-02-19T00:27:52.688Z,19.88
2023-02-19T00:30:19.127Z,19.25
2023-02-19T00:32:50.590Z,17.65
2023-02-19T00:35:16.918Z,18.13
2023-02-19T00:37:43.316Z,20.35
2023-02-19T00:40:09.917Z,17.50
2023-02-19T00:42:36.562Z,17.17
2023-02-19T00:45:03.099Z,14.35
2023-02-19T00:47:29.482Z,18.48
2023-02-19T00:49:55.878Z,22.42
2023-02-19T00:52:22.216Z,18.80
2023-02-19T00:54:48.506Z,20.25
2023-02-19T00:57:14.855Z,20.67
2023-02-19T00:59:41.239Z,17.92
2023-02-19T01:02:07.711Z,23.48
2023-02-19T01:04:34.098Z,18.60
2023-02-19T01:07:00.473Z,24.02
2023-02-19T01:09:26.867Z,19.50
2023-02-19T01:11:53.172Z,25.27
2023-02-19T01:14:19.520Z,18.45
2023-02-19T01:16:45.922Z,16.05
2023-02-19T01:19:12.336Z,19.08
2023-02-19T01:21:40.669Z,20.67
2023-02-19T01:24:07.313Z,16.70
2023-02-19T01:26:34.909Z,21.50
2023-02-19T01:29:02.195Z,17.40
2023-02-19T01:31:29.037Z,17.45
2023-02-19T01:33:59.745Z,17.08
2023-02-19T01:36:27.188Z,16.90
2023-02-19T01:38:54.256Z,15.40
2023-02-19T01:41:23.697Z,12.77
2023-02-19T01:44:04.695Z,15.30
2023-02-19T01:46:42.681Z,17.05
2023-02-19T01:49:23.759Z,15.10
2023-02-19T01:52:21.746Z,17.00
2023-02-19T01:54:49.779Z,14.02
2023-02-19T01:57:21.151Z,12.85
2023-02-19T01:59:52.029Z,12.20
2023-02-19T02:02:18.601Z,13.10
2023-02-19T02:04:45.035Z,12.65
2023-02-19T02:07:11.891Z,11.38
2023-02-19T02:09:38.373Z,15.52
2023-02-19T02:12:05.163Z,13.43
2023-02-19T02:14:35.918Z,13.93
2023-02-19T02:17:30.885Z,14.70
2023-02-19T02:20:03.160Z,9.68
2023-02-19T02:22:51.882Z,14.73
2023-02-19T02:25:34.836Z,11.63
2023-02-19T02:28:19.954Z,14.77
2023-02-19T02:30:56.187Z,7.55
2023-02-19T02:33:39.823Z,8.95
2023-02-19T02:36:16.863Z,8.93
2023-02-19T02:38:45.920Z,14.30
2023-02-19T02:41:14.322Z,8.40
2023-02-19T02:43:41.065Z,10.35
2023-02-19T02:46:11.640Z,9.15
2023-02-19T02:48:47.775Z,8.43
2023-02-19T02:51:24.494Z,12.23
2023-02-19T02:53:56.957Z,11.13
2023-02-19T02:56:25.079Z,10.23
2023-02-19T02:58:53.020Z,9.70
2023-02-19T03:01:30.104Z,9.82
2023-02-19T03:04:11.868Z,8.80
2023-02-19T03:06:39.179Z,9.93
2023-02-19T03:09:11.603Z,8.68
2023-02-19T03:11:41.535Z,12.40
2023-02-19T03:14:15.405Z,9.82
2023-02-19T03:16:45.819Z,9.05
2023-02-19T03:19:16.257Z,9.50
2023-02-19T03:21:46.857Z,13.88
2023-02-19T03:26:43.566Z,8.15
2023-02-19T03:29:11.997Z,11.40
2023-02-19T03:31:40.470Z,9.80
2023-02-19T03:34:13.606Z,11.57
2023-02-19T03:36:45.635Z,13.85
2023-02-19T03:39:17.640Z,9.23
2023-02-19T03:42:02.333Z,8.75
2023-02-19T03:44:44.501Z,11.40
2023-02-19T03:47:20.880Z,10.82
2023-02-19T03:50:17.613Z,11.88
2023-02-19T03:53:05.829Z,8.68
2023-02-19T03:55:38.726Z,14.82
2023-02-19T03:58:31.943Z,12.75
2023-02-19T04:01:22.265Z,12.93
2023-02-19T04:04:08.498Z,11.43
2023-02-19T04:06:37.924Z,11.55
2023-02-19T04:09:08.618Z,8.98
2023-02-19T04:11:38.821Z,9.63
2023-02-19T04:14:23.948Z,8.15
2023-02-19T04:16:55.332Z,9.05
2023-02-19T04:19:25.717Z,11.77
2023-02-19T04:21:54.042Z,11.55
2023-02-19T04:24:49.181Z,8.52
2023-02-19T04:27:19.925Z,12.60
2023-02-19T04:29:46.956Z,8.27
2023-02-19T04:32:14.628Z,12.65
2023-02-19T04:34:41.392Z,11.90
2023-02-19T04:37:08.366Z,10.27
2023-02-19T04:39:34.804Z,9.75
2023-02-19T04:42:01.238Z,11.80
2023-02-19T04:44:27.677Z,13.00
2023-02-19T04:46:54.259Z,12.45
2023-02-19T04:49:20.625Z,10.23
2023-02-19T04:51:47.299Z,9.15
2023-02-19T04:54:13.690Z,9.13
2023-02-19T04:56:40.105Z,11.60
2023-02-19T04:59:06.461Z,10.95
2023-02-19T05:01:32.837Z,7.15
2023-02-19T05:03:59.250Z,8.35
2023-02-19T05:06:25.677Z,10.95
2023-02-19T05:08:55.051Z,12.27
2023-02-19T05:11:21.468Z,13.02
2023-02-19T05:13:47.864Z,14.07
2023-02-19T05:16:15.702Z,15.85
2023-02-19T05:18:43.550Z,9.93
2023-02-19T05:21:11.790Z,11.30
2023-02-19T05:23:38.868Z,7.68
2023-02-19T05:26:12.388Z,11.45
2023-02-19T05:28:38.885Z,15.02
2023-02-19T05:31:08.288Z,13.55
2023-02-19T05:33:35.258Z,10.80
2023-02-19T05:36:07.040Z,9.20
2023-02-19T05:38:33.502Z,11.32
2023-02-19T05:41:17.588Z,14.85
2023-02-19T05:43:45.434Z,10.80
2023-02-19T05:46:14.530Z,11.00
2023-02-19T05:48:41.671Z,11.18
2023-02-19T05:51:11.762Z,9.50
2023-02-19T05:53:38.993Z,12.40
2023-02-19T05:56:29.784Z,5.90
2023-02-19T05:58:57.080Z,7.70
2023-02-19T06:01:26.848Z,10.07
2023-02-19T06:03:57.123Z,11.65
2023-02-19T06:08:50.124Z,9.07
2023-02-19T06:11:17.793Z,10.20
2023-02-19T06:13:45.056Z,8.25
2023-02-19T06:16:12.548Z,8.55
2023-02-19T06:18:39.353Z,9.38
2023-02-19T06:21:09.594Z,9.32
2023-02-19T06:23:38.333Z,6.95
2023-02-19T06:26:13.601Z,8.07
2023-02-19T06:28:41.407Z,9.05
2023-02-19T06:31:09.794Z,8.60
2023-02-19T06:33:37.682Z,8.65
2023-02-19T06:36:04.377Z,13.95
2023-02-19T06:38:31.383Z,9.32
2023-02-19T06:41:02.053Z,8.50
2023-02-19T06:45:59.206Z,6.30
2023-02-19T06:48:26.973Z,8.55
2023-02-19T06:50:54.171Z,9.75
2023-02-19T06:53:20.907Z,10.93
2023-02-19T06:56:22.641Z,6.65
2023-02-19T06:58:49.107Z,8.73
2023-02-19T07:01:15.754Z,6.85
2023-02-19T07:03:45.414Z,9.20
2023-02-19T07:06:12.404Z,10.35
2023-02-19T07:08:38.913Z,13.70
2023-02-19T07:11:05.420Z,10.20
2023-02-19T07:13:32.001Z,10.50
2023-02-19T07:16:00.497Z,11.80
2023-02-19T07:18:27.286Z,11.18
2023-02-19T07:20:53.682Z,10.90
2023-02-19T07:23:22.525Z,12.07
2023-02-19T07:25:49.026Z,15.48
2023-02-19T07:28:15.461Z,10.80
2023-02-19T07:30:41.875Z,10.38
2023-02-19T07:33:10.457Z,14.02
2023-02-19T07:35:37.132Z,12.60
2023-02-19T07:38:03.799Z,16.77
2023-02-19T07:40:30.153Z,18.35
2023-02-19T07:42:59.487Z,12.50
2023-02-19T07:45:25.926Z,14.43
2023-02-19T07:47:52.385Z,12.90
2023-02-19T07:50:18.910Z,16.27
2023-02-19T07:52:45.549Z,15.88
2023-02-19T07:55:11.985Z,13.60
2023-02-19T07:57:38.476Z,12.25
2023-02-19T08:00:05.182Z,11.38
2023-02-19T08:02:31.703Z,14.93
2023-02-19T08:04:58.200Z,12.85
2023-02-19T08:07:24.898Z,14.82
2023-02-19T08:09:51.482Z,18.40
2023-02-19T08:12:18.081Z,14.07
2023-02-19T08:14:44.474Z,12.57
2023-02-19T08:17:10.915Z,14.48
2023-02-19T08:19:37.390Z,16.65
2023-02-19T08:22:03.867Z,15.25
2023-02-19T08:24:30.287Z,13.68
2023-02-19T08:26:56.816Z,12.10
2023-02-19T08:29:23.264Z,13.20
2023-02-19T08:31:49.818Z,13.27
2023-02-19T08:34:16.731Z,14.82
2023-02-19T08:36:43.177Z,15.68
2023-02-19T08:39:09.612Z,12.02
2023-02-19T08:41:35.968Z,12.63
2023-02-19T08:44:02.300Z,15.07
2023-02-19T08:46:28.710Z,14.10
2023-02-19T08:48:55.445Z,10.10
2023-02-19T08:51:22.113Z,10.73
2023-02-19T08:53:48.508Z,13.05
2023-02-19T08:56:17.426Z,14.18
2023-02-19T08:58:44.994Z,11.75
2023-02-19T09:01:14.759Z,12.43
2023-02-19T09:03:41.892Z,14.00
2023-02-19T09:06:14.361Z,14.75
2023-02-19T09:08:40.728Z,13.25
2023-02-19T09:11:07.198Z,10.10
2023-02-19T09:13:33.903Z,12.57
2023-02-19T09:16:00.332Z,8.93
2023-02-19T09:18:26.962Z,10.70
2023-02-19T09:20:53.598Z,11.15
2023-02-19T09:23:20.042Z,11.13
2023-02-19T09:25:46.557Z,11.95
2023-02-19T09:28:12.940Z,11.20
2023-02-19T09:30:39.731Z,8.45
2023-02-19T09:33:06.272Z,12.65
2023-02-19T09:35:34.274Z,10.68
2023-02-19T09:38:01.084Z,13.70
2023-02-19T09:40:27.980Z,10.05
2023-02-19T09:42:54.363Z,9.95
2023-02-19T09:45:25.391Z,12.25
2023-02-19T09:48:00.128Z,11.40
2023-02-19T09:50:48.611Z,7.15
2023-02-19T09:55:44.615Z,10.77
2023-02-19T09:58:34.213Z,7.60
2023-02-19T10:01:04.088Z,8.13
2023-02-19T10:03:35.152Z,7.78
2023-02-19T10:06:24.190Z,8.27
2023-02-19T10:09:18.298Z,6.53
2023-02-19T10:11:45.737Z,9.65
2023-02-19T10:14:37.374Z,8.38
2023-02-19T10:17:05.902Z,7.50
2023-02-19T10:19:35.929Z,9.85
2023-02-19T10:22:11.747Z,7.10
2023-02-19T10:24:40.833Z,6.45
2023-02-19T10:27:14.863Z,10.65
2023-02-19T10:29:45.983Z,8.65
2023-02-19T10:32:13.663Z,5.03
2023-02-19T10:34:40.133Z,8.90
2023-02-19T10:37:13.503Z,8.68
2023-02-19T10:39:46.961Z,5.60
2023-02-19T10:42:23.277Z,7.47
2023-02-19T10:44:57.647Z,2.80
2023-02-19T10:47:26.645Z,4.53
2023-02-19T10:49:57.112Z,2.88
2023-02-19T10:52:28.484Z,3.15
2023-02-19T10:54:57.718Z,3.97
2023-02-19T10:57:27.324Z,3.10
2023-02-19T11:00:15.162Z,3.13
2023-02-19T11:02:43.049Z,2.72
2023-02-19T11:05:09.320Z,2.33
2023-02-19T11:07:37.259Z,2.42
2023-02-19T11:10:05.390Z,2.22
2023-02-19T11:12:34.308Z,2.28
2023-02-19T11:15:19.546Z,3.00
2023-02-19T11:17:54.001Z,4.22
2023-02-19T11:20:20.906Z,4.28
2023-02-19T11:22:47.567Z,2.50
2023-02-19T11:25:13.918Z,2.92
2023-02-19T11:28:06.604Z,3.00
2023-02-19T11:30:40.579Z,2.75
2023-02-19T11:33:16.305Z,2.60
2023-02-19T11:35:44.155Z,2.25
2023-02-19T11:38:12.742Z,3.20
2023-02-19T11:40:41.075Z,2.85
2023-02-19T11:43:35.914Z,2.83
2023-02-19T11:46:15.285Z,2.80
2023-02-19T11:48:51.581Z,2.55
2023-02-19T11:51:52.183Z,1.92
2023-02-19T11:54:27.944Z,1.92
2023-02-19T11:57:22.616Z,3.08
2023-02-19T12:00:16.109Z,2.67
2023-02-19T12:03:01.681Z,3.10
2023-02-19T12:05:42.777Z,3.72
2023-02-19T12:08:18.350Z,3.05
2023-02-19T12:11:24.936Z,2.22
2023-02-19T12:14:08.955Z,3.08
2023-02-19T12:16:50.105Z,2.35
2023-02-19T12:19:31.271Z,2.13
2023-02-19T12:22:21.025Z,2.60
2023-02-19T12:25:05.773Z,3.08
2023-02-19T12:28:07.472Z,3.00
2023-02-19T12:31:12.903Z,2.15
2023-02-19T12:34:17.814Z,3.35
2023-02-19T12:36:59.463Z,2.05
2023-02-19T12:40:04.784Z,2.40
2023-02-19T12:42:50.809Z,3.53
2023-02-19T12:45:26.874Z,2.22
2023-02-19T12:48:14.464Z,2.25
2023-02-19T12:50:43.769Z,2.40
2023-02-19T12:53:41.934Z,3.38
2023-02-19T12:56:14.605Z,2.05
2023-02-19T12:58:51.957Z,3.08
2023-02-19T13:01:25.156Z,2.22
2023-02-19T13:04:17.100Z,2.40
2023-02-19T13:06:52.858Z,2.38
2023-02-19T13:09:28.552Z,3.63
2023-02-19T13:12:20.065Z,3.03
2023-02-19T13:14:57.344Z,2.15
2023-02-19T13:17:37.703Z,3.25
2023-02-19T13:20:35.334Z,2.35
2023-02-19T13:23:08.478Z,2.85
2023-02-19T13:26:06.713Z,3.58
2023-02-19T13:28:51.923Z,3.30
2023-02-19T13:31:21.075Z,3.20
2023-02-19T13:34:09.119Z,3.15
2023-02-19T13:36:36.721Z,3.45
2023-02-19T13:39:06.774Z,2.75
2023-02-19T13:41:50.562Z,3.08
2023-02-19T13:44:25.637Z,3.00
2023-02-19T13:46:51.986Z,3.47
2023-02-19T13:49:28.750Z,4.40
2023-02-19T13:51:57.149Z,4.07
2023-02-19T13:54:28.231Z,3.50
2023-02-19T13:57:19.671Z,3.28
2023-02-19T13:59:47.233Z,2.95
2023-02-19T14:02:22.754Z,4.18
2023-02-19T14:04:53.569Z,2.35
2023-02-19T14:07:51.278Z,3.50
2023-02-19T14:10:42.366Z,3.60
2023-02-19T14:13:09.137Z,2.88
2023-02-19T14:15:49.752Z,4.57
2023-02-19T14:18:42.845Z,2.10
2023-02-19T14:21:22.728Z,2.88
2023-02-19T14:24:15.112Z,3.20
2023-02-19T14:26:42.421Z,2.00
2023-02-19T14:29:13.877Z,3.05
2023-02-19T14:31:45.518Z,4.00
2023-02-19T14:34:22.295Z,2.53
2023-02-19T14:36:55.364Z,2.53
2023-02-19T14:39:27.414Z,2.95
2023-02-19T14:41:58.978Z,2.88
2023-02-19T14:44:32.746Z,2.35
2023-02-19T14:47:06.838Z,2.72
2023-02-19T14:49:49.199Z,2.30
2023-02-19T14:52:27.693Z,3.38
2023-02-19T14:55:00.469Z,1.90
2023-02-19T14:57:34.893Z,2.33
2023-02-19T15:00:21.697Z,1.77
2023-02-19T15:02:53.726Z,2.97
2023-02-19T15:05:27.418Z,2.22
2023-02-19T15:07:57.628Z,2.10
2023-02-19T15:10:29.412Z,1.92
2023-02-19T15:13:02.992Z,4.07
2023-02-19T15:15:35.195Z,2.17
2023-02-19T15:18:03.013Z,2.30
2023-02-19T15:20:33.570Z,2.08
2023-02-19T15:25:38.029Z,2.45
2023-02-19T15:28:23.307Z,2.20
2023-02-19T15:30:50.758Z,2.10
2023-02-19T15:33:18.894Z,2.45
2023-02-19T15:35:57.369Z,2.45
2023-02-19T15:38:24.803Z,1.88
2023-02-19T15:40:51.620Z,3.08
2023-02-19T15:43:47.428Z,1.73
2023-02-19T15:46:22.446Z,4.38
2023-02-19T15:49:02.517Z,2.25
2023-02-19T15:51:40.628Z,2.40
2023-02-19T15:54:17.590Z,4.10
2023-02-19T15:56:49.023Z,2.20
2023-02-19T15:59:24.479Z,2.30
2023-02-19T16:01:51.103Z,4.53
2023-02-19T16:04:18.928Z,3.30
2023-02-19T16:07:02.565Z,2.60
2023-02-19T16:09:36.769Z,17.08
2023-02-19T16:12:19.803Z,4.30
2023-02-19T16:14:46.654Z,4.97
2023-02-19T16:17:17.848Z,4.43
2023-02-19T16:20:00.562Z,4.38
2023-02-19T16:22:31.377Z,3.03
2023-02-19T16:25:02.104Z,3.28
2023-02-19T16:27:30.629Z,2.90
2023-02-19T16:29:57.478Z,2.35
2023-02-19T16:32:23.909Z,2.90
2023-02-19T16:34:51.860Z,2.72
2023-02-19T16:37:36.549Z,3.72
2023-02-19T16:40:08.992Z,3.70
2023-02-19T16:43:04.074Z,3.88
2023-02-19T16:45:30.568Z,2.90
2023-02-19T16:47:57.192Z,10.90
2023-02-19T16:50:25.371Z,5.75
2023-02-19T16:53:00.121Z,6.00
2023-02-19T16:55:27.952Z,9.80
2023-02-19T16:57:55.073Z,4.07
2023-02-19T17:00:27.864Z,4.63
2023-02-19T17:03:00.948Z,6.15
2023-02-19T17:05:29.323Z,4.32
2023-02-19T17:07:55.821Z,4.07
2023-02-19T17:10:25.291Z,5.22
2023-02-19T17:12:53.384Z,5.30
2023-02-19T17:15:20.178Z,5.03
2023-02-19T17:17:46.851Z,17.83
2023-02-19T17:20:20.848Z,9.93
2023-02-19T17:22:47.235Z,4.20
2023-02-19T17:25:13.750Z,6.00
2023-02-19T17:27:40.326Z,3.55
2023-02-19T17:30:21.041Z,2.78
2023-02-19T17:32:47.433Z,3.30
2023-02-19T17:35:16.417Z,3.42
2023-02-19T17:37:42.844Z,2.70
2023-02-19T17:40:33.481Z,2.45
2023-02-19T17:43:00.974Z,2.72
2023-02-19T17:45:28.316Z,4.32
2023-02-19T17:47:54.855Z,3.50
2023-02-19T17:50:24.918Z,2.95
2023-02-19T17:52:51.324Z,2.85
2023-02-19T17:55:18.796Z,2.58
2023-02-19T17:57:46.202Z,2.70
2023-02-19T18:00:18.991Z,2.15
2023-02-19T18:02:47.352Z,2.20
2023-02-19T18:05:14.536Z,3.65
2023-02-19T18:07:41.458Z,2.30
2023-02-19T18:10:08.728Z,3.28
2023-02-19T18:12:35.788Z,2.10
2023-02-19T18:15:02.301Z,3.40
2023-02-19T18:17:28.917Z,2.40
2023-02-19T18:19:55.356Z,3.53
2023-02-19T18:22:21.896Z,2.13
2023-02-19T18:24:50.100Z,1.55
2023-02-19T18:27:17.418Z,1.75
2023-02-19T18:29:44.013Z,1.77
2023-02-19T18:32:10.709Z,2.22
2023-02-19T18:34:37.162Z,3.65
2023-02-19T18:37:03.791Z,2.35
2023-02-19T18:39:32.772Z,6.10
2023-02-19T18:42:01.482Z,81.20
2023-02-19T18:44:29.765Z,36.17
2023-02-19T18:46:58.827Z,7.78
2023-02-19T18:49:28.487Z,5.47
2023-02-19T18:51:55.981Z,4.88
2023-02-19T18:54:23.026Z,2.90
2023-02-19T18:56:53.343Z,2.30
2023-02-19T18:59:20.276Z,3.83
2023-02-19T19:01:47.128Z,2.42
2023-02-19T19:04:16.001Z,2.40
2023-02-19T19:06:42.901Z,2.58
2023-02-19T19:09:10.885Z,5.57
2023-02-19T19:11:37.618Z,2.20
2023-02-19T19:14:04.642Z,3.53
2023-02-19T19:16:31.231Z,3.55
2023-02-19T19:18:57.897Z,3.58
2023-02-19T19:21:24.658Z,4.38
2023-02-19T19:23:51.615Z,6.15
2023-02-19T19:26:22.571Z,2.63
2023-02-19T19:28:49.474Z,2.45
2023-02-19T19:31:18.143Z,2.95
2023-02-19T19:33:48.005Z,2.70
2023-02-19T19:36:18.757Z,3.53
2023-02-19T19:41:15.382Z,4.90
2023-02-19T19:43:42.247Z,2.53
2023-02-19T19:46:08.687Z,3.10
2023-02-19T19:48:35.485Z,3.72
2023-02-19T19:51:02.028Z,4.78
2023-02-19T19:53:28.527Z,4.93
2023-02-19T19:55:54.881Z,3.42
2023-02-19T19:58:21.407Z,3.42
2023-02-19T20:00:47.904Z,3.53
2023-02-19T20:03:14.363Z,2.63
2023-02-19T20:05:40.929Z,2.97
2023-02-19T20:08:08.008Z,4.70
2023-02-19T20:10:36.796Z,4.13
2023-02-19T20:13:03.327Z,3.22
2023-02-19T20:15:30.165Z,4.60
2023-02-19T20:17:56.594Z,62.70
2023-02-19T20:20:24.111Z,23.17
2023-02-19T20:22:51.561Z,4.57
2023-02-19T20:25:23.389Z,4.68
2023-02-19T20:27:51.283Z,5.05
2023-02-19T20:30:20.510Z,4.32
2023-02-19T20:32:48.290Z,4.07
2023-02-19T20:35:16.277Z,6.10
2023-02-19T20:37:42.769Z,7.80
2023-02-19T20:40:12.042Z,6.95
2023-02-19T20:42:38.717Z,5.60
2023-02-19T20:45:05.583Z,6.22
2023-02-19T20:47:32.977Z,6.97
2023-02-19T20:49:59.318Z,7.40
2023-02-19T20:52:25.877Z,6.88
2023-02-19T20:54:56.570Z,6.38
2023-02-19T20:57:24.425Z,6.28
2023-02-19T20:59:50.804Z,8.50
2023-02-19T21:02:27.197Z,7.95
2023-02-19T21:04:53.619Z,8.35
2023-02-19T21:07:20.143Z,9.32
2023-02-19T21:09:46.451Z,9.35
2023-02-19T21:12:13.311Z,8.93
2023-02-19T21:14:40.469Z,7.68
2023-02-19T21:17:07.021Z,6.53
2023-02-19T21:19:33.796Z,7.10
2023-02-19T21:22:00.161Z,9.10
2023-02-19T21:24:26.565Z,11.13
2023-02-19T21:26:52.900Z,7.50
2023-02-19T21:29:22.347Z,7.70
2023-02-19T21:31:55.118Z,7.03
2023-02-19T21:34:24.950Z,6.15
2023-02-19T21:36:51.896Z,5.97
2023-02-19T21:39:20.880Z,6.28
2023-02-19T21:41:47.288Z,5.38
2023-02-19T21:44:14.139Z,5.43
2023-02-19T21:46:40.753Z,5.82
2023-02-19T21:49:07.451Z,7.32
2023-02-19T21:51:38.882Z,5.05
2023-02-19T21:54:06.810Z,6.22
2023-02-19T21:56:36.343Z,5.63
2023-02-19T21:59:03.785Z,6.68
2023-02-19T22:01:35.794Z,5.20
2023-02-19T22:04:02.383Z,7.65
2023-02-19T22:06:30.603Z,7.03
2023-02-19T22:08:57.849Z,6.28
2023-02-19T22:11:24.330Z,8.48
2023-02-19T22:13:51.177Z,8.95
2023-02-19T22:16:18.093Z,8.65
2023-02-19T22:18:52.941Z,8.50
2023-02-19T22:21:21.364Z,8.60
2023-02-19T22:23:49.305Z,8.30
2023-02-19T22:26:26.457Z,8.07
2023-02-19T22:28:53.347Z,7.65
2023-02-19T22:31:22.813Z,6.82
2023-02-19T22:33:49.778Z,9.13
2023-02-19T22:36:19.671Z,10.95
2023-02-19T22:38:46.819Z,8.25
2023-02-19T22:41:16.418Z,9.68
2023-02-19T22:43:43.217Z,9.02
2023-02-19T22:46:13.692Z,8.00
2023-02-19T22:48:40.678Z,11.15
2023-02-19T22:51:12.162Z,9.55
2023-02-19T22:53:59.620Z,12.23
2023-02-19T22:56:28.126Z,10.05
2023-02-19T22:58:57.189Z,9.40
2023-02-19T23:01:24.658Z,11.43
2023-02-19T23:03:56.776Z,10.27
2023-02-19T23:06:29.525Z,11.57
2023-02-19T23:08:57.295Z,12.68
2023-02-19T23:11:26.098Z,11.38
2023-02-19T23:13:52.986Z,11.48
2023-02-19T23:16:20.633Z,13.18
2023-02-19T23:18:47.139Z,13.70
2023-02-19T23:21:13.707Z,14.48
2023-02-19T23:23:44.402Z,13.50
2023-02-19T23:26:12.431Z,11.85
2023-02-19T23:28:40.440Z,9.18
2023-02-19T23:31:07.199Z,15.10
2023-02-19T23:33:33.917Z,13.02
2023-02-19T23:36:00.352Z,13.40
2023-02-19T23:38:26.761Z,13.45
2023-02-19T23:40:53.177Z,11.88
2023-02-19T23:43:19.897Z,11.00
2023-02-19T23:45:46.614Z,13.35
2023-02-19T23:48:13.573Z,11.70
2023-02-19T23:50:39.967Z,12.80
2023-02-19T23:53:06.676Z,14.00
2023-02-19T23:55:33.049Z,15.32
2023-02-19T23:57:59.597Z,14.88
